<?xml version="1.0" encoding="UTF-8" standalone="no" ?>
<gpx xmlns="http://www.topografix.com/GPX/1/1" xmlns:xsi="http://www.w3.org/2001/XMLSchema-instance" xsi:schemaLocation="http://www.topografix.com/GPX/1/1 http://www.topografix.com/GPX/1/1/gpx.xsd" version="1.1" creator="VisuGPX - https://www.visugpx.com">
  <metadata>
    <name>luzech 6 descentes</name>
    <desc><![CDATA[parcours typé enduro avec de belles descentes]]></desc>
  </metadata>
  <trk>
    <name><![CDATA[2014-04-01-08-18-57]]></name>
    <trkseg>
      <trkpt lat="44.42809" lon="1.32183">
        <ele>268.701</ele>
        <time>2014-04-01T11:25:02Z</time>
      </trkpt>
      <trkpt lat="44.42805" lon="1.3218">
        <ele>270.173</ele>
        <time>2014-04-01T11:25:06Z</time>
      </trkpt>
      <trkpt lat="44.42799" lon="1.32183">
        <ele>271.812</ele>
        <time>2014-04-01T11:25:12Z</time>
      </trkpt>
      <trkpt lat="44.4279" lon="1.32191">
        <ele>271.251</ele>
        <time>2014-04-01T11:25:20Z</time>
      </trkpt>
      <trkpt lat="44.42782" lon="1.32197">
        <ele>273.142</ele>
        <time>2014-04-01T11:25:27Z</time>
      </trkpt>
      <trkpt lat="44.42774" lon="1.32195">
        <ele>275.881</ele>
        <time>2014-04-01T11:25:34Z</time>
      </trkpt>
      <trkpt lat="44.42772" lon="1.32191">
        <ele>276.321</ele>
        <time>2014-04-01T11:25:37Z</time>
      </trkpt>
      <trkpt lat="44.42773" lon="1.32182">
        <ele>276.561</ele>
        <time>2014-04-01T11:25:44Z</time>
      </trkpt>
      <trkpt lat="44.42778" lon="1.32171">
        <ele>274.729</ele>
        <time>2014-04-01T11:25:52Z</time>
      </trkpt>
      <trkpt lat="44.42782" lon="1.32166">
        <ele>273.299</ele>
        <time>2014-04-01T11:25:57Z</time>
      </trkpt>
      <trkpt lat="44.42786" lon="1.3216">
        <ele>272.179</ele>
        <time>2014-04-01T11:26:02Z</time>
      </trkpt>
      <trkpt lat="44.42795" lon="1.32152">
        <ele>274.951</ele>
        <time>2014-04-01T11:26:10Z</time>
      </trkpt>
      <trkpt lat="44.42804" lon="1.32145">
        <ele>276.951</ele>
        <time>2014-04-01T11:26:17Z</time>
      </trkpt>
      <trkpt lat="44.42816" lon="1.32135">
        <ele>277.74</ele>
        <time>2014-04-01T11:26:27Z</time>
      </trkpt>
      <trkpt lat="44.42823" lon="1.32127">
        <ele>278.101</ele>
        <time>2014-04-01T11:26:34Z</time>
      </trkpt>
      <trkpt lat="44.42817" lon="1.32127">
        <ele>279.091</ele>
        <time>2014-04-01T11:26:39Z</time>
      </trkpt>
      <trkpt lat="44.42807" lon="1.32132">
        <ele>280.141</ele>
        <time>2014-04-01T11:26:47Z</time>
      </trkpt>
      <trkpt lat="44.42798" lon="1.32134">
        <ele>281.571</ele>
        <time>2014-04-01T11:26:54Z</time>
      </trkpt>
      <trkpt lat="44.42787" lon="1.32137">
        <ele>283.251</ele>
        <time>2014-04-01T11:27:03Z</time>
      </trkpt>
      <trkpt lat="44.42779" lon="1.32138">
        <ele>285.061</ele>
        <time>2014-04-01T11:27:10Z</time>
      </trkpt>
      <trkpt lat="44.42769" lon="1.3214">
        <ele>287.842</ele>
        <time>2014-04-01T11:27:18Z</time>
      </trkpt>
      <trkpt lat="44.42757" lon="1.32143">
        <ele>290.902</ele>
        <time>2014-04-01T11:27:27Z</time>
      </trkpt>
      <trkpt lat="44.42752" lon="1.32146">
        <ele>292.431</ele>
        <time>2014-04-01T11:27:33Z</time>
      </trkpt>
    </trkseg>
  </trk>
</gpx>